createdAt,value
2022-10-23T00:01:26.475Z,15.80
2022-10-23T00:03:58.593Z,19.27
2022-10-23T00:06:27.995Z,12.75
2022-10-23T00:08:56.934Z,11.32
2022-10-23T00:11:27.732Z,11.48
2022-10-23T00:13:57.704Z,12.50
2022-10-23T00:16:26.697Z,16.23
2022-10-23T00:18:56.508Z,16.17
2022-10-23T00:21:25.783Z,14.13
2022-10-23T00:23:54.241Z,12.85
2022-10-23T00:26:22.616Z,12.88
2022-10-23T00:28:53.122Z,12.68
2022-10-23T00:31:22.573Z,13.18
2022-10-23T00:33:51.732Z,12.30
2022-10-23T00:36:22.562Z,11.68
2022-10-23T00:38:52.129Z,11.95
2022-10-23T00:41:22.821Z,14.00
2022-10-23T00:44:01.024Z,12.00
2022-10-23T00:46:29.626Z,13.07
2022-10-23T00:48:58.383Z,15.18
2022-10-23T00:51:30.384Z,14.23
2022-10-23T00:54:22.841Z,11.95
2022-10-23T00:56:49.523Z,13.93
2022-10-23T00:59:17.973Z,14.02
2022-10-23T01:01:46.975Z,17.00
2022-10-23T01:04:15.549Z,11.00
2022-10-23T01:06:52.131Z,15.57
2022-10-23T01:09:25.552Z,14.63
2022-10-23T01:11:57.517Z,10.95
2022-10-23T01:14:31.127Z,10.02
2022-10-23T01:17:04.386Z,13.82
2022-10-23T01:19:45.794Z,10.85
2022-10-23T01:22:29.766Z,12.65
2022-10-23T01:24:59.981Z,11.48
2022-10-23T01:27:33.179Z,12.13
2022-10-23T01:30:07.112Z,11.82
2022-10-23T01:32:46.113Z,8.93
2022-10-23T01:35:17.577Z,10.65
2022-10-23T01:37:52.817Z,11.32
2022-10-23T01:40:25.105Z,10.02
2022-10-23T01:42:57.034Z,10.23
2022-10-23T01:45:31.792Z,10.57
2022-10-23T01:48:02.610Z,11.90
2022-10-23T01:50:31.923Z,13.43
2022-10-23T01:53:11.190Z,10.00
2022-10-23T01:58:17.012Z,9.93
2022-10-23T02:00:46.859Z,10.95
2022-10-23T02:03:17.748Z,12.82
2022-10-23T02:05:46.293Z,14.07
2022-10-23T02:08:15.064Z,11.85
2022-10-23T02:10:49.342Z,10.55
2022-10-23T02:13:26.766Z,10.90
2022-10-23T02:16:02.362Z,17.75
2022-10-23T02:18:38.137Z,14.83
2022-10-23T02:21:10.847Z,16.42
2022-10-23T02:23:41.877Z,13.40
2022-10-23T02:26:17.358Z,11.65
2022-10-23T02:28:57.992Z,14.10
2022-10-23T02:31:26.588Z,13.00
2022-10-23T02:33:55.184Z,13.48
2022-10-23T02:36:23.812Z,12.00
2022-10-23T02:38:52.547Z,9.55
2022-10-23T02:41:33.305Z,11.88
2022-10-23T02:44:19.711Z,12.18
2022-10-23T02:46:52.647Z,10.70
2022-10-23T02:49:24.844Z,13.90
2022-10-23T02:52:04.361Z,12.20
2022-10-23T02:54:51.994Z,11.85
2022-10-23T02:57:24.922Z,12.25
2022-10-23T03:00:02.743Z,12.07
2022-10-23T03:02:35.273Z,14.50
2022-10-23T03:05:05.144Z,10.93
2022-10-23T03:07:34.413Z,12.35
2022-10-23T03:10:08.718Z,12.45
2022-10-23T03:12:38.078Z,13.45
2022-10-23T03:15:10.151Z,16.02
2022-10-23T03:17:38.610Z,14.57
2022-10-23T03:20:07.985Z,16.25
2022-10-23T03:22:37.360Z,13.93
2022-10-23T03:25:06.681Z,15.93
2022-10-23T03:27:36.697Z,12.43
2022-10-23T03:30:10.367Z,13.90
2022-10-23T03:32:41.207Z,13.73
2022-10-23T03:35:10.105Z,14.20
2022-10-23T03:37:39.039Z,17.98
2022-10-23T03:40:08.702Z,14.07
2022-10-23T03:42:37.080Z,15.00
2022-10-23T03:45:06.138Z,15.07
2022-10-23T03:47:41.112Z,17.08
2022-10-23T03:50:10.936Z,17.70
2022-10-23T03:52:39.627Z,16.23
2022-10-23T03:55:09.314Z,17.92
2022-10-23T03:57:38.313Z,19.70
2022-10-23T04:00:08.273Z,17.92
2022-10-23T04:02:46.487Z,15.90
2022-10-23T04:05:15.466Z,19.15
2022-10-23T04:07:53.349Z,21.85
2022-10-23T04:10:21.844Z,17.52
2022-10-23T04:12:50.227Z,16.70
2022-10-23T04:15:18.749Z,16.65
2022-10-23T04:17:49.377Z,20.05
2022-10-23T04:20:17.928Z,17.80
2022-10-23T04:22:46.539Z,23.42
2022-10-23T04:25:16.689Z,18.45
2022-10-23T04:27:46.076Z,15.80
2022-10-23T04:30:15.048Z,17.90
2022-10-23T04:32:43.526Z,18.92
2022-10-23T04:35:13.333Z,17.10
2022-10-23T04:37:41.848Z,20.58
2022-10-23T04:40:11.135Z,15.85
2022-10-23T04:42:40.970Z,15.90
2022-10-23T04:45:09.873Z,18.70
2022-10-23T04:47:38.721Z,17.83
2022-10-23T04:50:08.213Z,18.88
2022-10-23T04:52:58.898Z,19.23
2022-10-23T04:55:50.524Z,18.27
2022-10-23T04:58:25.193Z,16.17
2022-10-23T05:00:54.434Z,16.75
2022-10-23T05:03:26.910Z,20.13
2022-10-23T05:05:56.746Z,18.55
2022-10-23T05:08:26.716Z,20.23
2022-10-23T05:11:13.694Z,19.52
2022-10-23T05:13:46.609Z,22.63
2022-10-23T05:16:27.755Z,18.70
2022-10-23T05:18:56.146Z,22.23
2022-10-23T05:21:26.728Z,18.23
2022-10-23T05:23:57.491Z,19.08
2022-10-23T05:26:26.421Z,16.73
2022-10-23T05:28:54.978Z,17.75
2022-10-23T05:31:25.842Z,16.95
2022-10-23T05:33:58.357Z,16.38
2022-10-23T05:36:27.052Z,16.92
2022-10-23T05:39:01.142Z,14.63
2022-10-23T05:41:29.559Z,18.10
2022-10-23T05:44:00.021Z,17.48
2022-10-23T05:46:46.782Z,19.73
2022-10-23T05:49:33.711Z,17.80
2022-10-23T05:52:34.464Z,15.77
2022-10-23T05:55:19.716Z,16.83
2022-10-23T05:58:07.400Z,16.48
2022-10-23T06:01:17.513Z,16.13
2022-10-23T06:04:06.859Z,18.13
2022-10-23T06:07:07.606Z,15.32
2022-10-23T06:09:36.071Z,15.70
2022-10-23T06:12:06.440Z,16.83
2022-10-23T06:14:35.380Z,16.52
2022-10-23T06:17:04.122Z,17.67
2022-10-23T06:19:40.871Z,17.88
2022-10-23T06:22:09.353Z,18.15
2022-10-23T06:24:59.818Z,17.38
2022-10-23T06:27:30.468Z,13.98
2022-10-23T06:29:58.824Z,16.10
2022-10-23T06:32:32.748Z,18.63
2022-10-23T06:35:11.197Z,15.43
2022-10-23T06:37:40.056Z,18.48
2022-10-23T06:40:19.744Z,17.50
2022-10-23T06:43:10.959Z,17.70
2022-10-23T06:46:02.277Z,19.75
2022-10-23T06:49:02.647Z,19.30
2022-10-23T06:51:34.766Z,17.25
2022-10-23T06:54:03.111Z,18.50
2022-10-23T06:56:54.593Z,18.23
2022-10-23T06:59:32.404Z,15.63
2022-10-23T07:02:01.855Z,16.52
2022-10-23T07:04:30.345Z,18.42
2022-10-23T07:06:59.632Z,17.52
2022-10-23T07:09:36.919Z,16.50
2022-10-23T07:12:13.995Z,16.60
2022-10-23T07:14:50.391Z,19.70
2022-10-23T07:17:18.889Z,20.35
2022-10-23T07:19:47.990Z,18.73
2022-10-23T07:22:17.265Z,22.52
2022-10-23T07:25:06.756Z,17.50
2022-10-23T07:27:41.126Z,19.35
2022-10-23T07:30:14.406Z,19.33
2022-10-23T07:32:50.671Z,19.48
2022-10-23T07:35:28.187Z,20.58
2022-10-23T07:38:04.831Z,17.25
2022-10-23T07:40:36.776Z,18.83
2022-10-23T07:43:05.991Z,20.92
2022-10-23T07:45:35.848Z,22.35
2022-10-23T07:48:11.750Z,21.45
2022-10-23T07:51:08.624Z,18.17
2022-10-23T07:53:41.645Z,18.33
2022-10-23T07:56:30.301Z,22.50
2022-10-23T07:59:17.716Z,19.33
2022-10-23T08:01:56.659Z,19.98
2022-10-23T08:04:38.929Z,19.98
2022-10-23T08:07:25.945Z,19.63
2022-10-23T08:09:57.503Z,18.85
2022-10-23T08:12:27.038Z,19.38
2022-10-23T08:14:56.558Z,18.73
2022-10-23T08:17:29.217Z,23.17
2022-10-23T08:20:14.801Z,22.98
2022-10-23T08:22:45.692Z,24.85
2022-10-23T08:25:24.698Z,19.20
2022-10-23T08:27:54.753Z,18.65
2022-10-23T08:30:23.418Z,19.75
2022-10-23T08:32:53.272Z,20.63
2022-10-23T08:35:22.210Z,19.77
2022-10-23T08:37:51.018Z,25.70
2022-10-23T08:40:23.426Z,20.33
2022-10-23T08:43:17.567Z,25.05
2022-10-23T08:46:05.117Z,26.73
2022-10-23T08:49:00.027Z,24.17
2022-10-23T08:52:04.694Z,27.33
2022-10-23T08:54:40.444Z,24.85
2022-10-23T08:57:14.146Z,29.98
2022-10-23T08:59:47.948Z,24.60
2022-10-23T09:02:19.789Z,28.37
2022-10-23T09:04:50.741Z,25.63
2022-10-23T09:07:29.731Z,33.75
2022-10-23T09:10:05.500Z,25.83
2022-10-23T09:12:33.916Z,37.78
2022-10-23T09:15:21.040Z,25.05
2022-10-23T09:17:51.170Z,27.65
2022-10-23T09:20:25.894Z,36.72
2022-10-23T09:22:59.604Z,30.17
2022-10-23T09:25:30.044Z,26.35
2022-10-23T09:28:02.916Z,26.58
2022-10-23T09:30:36.409Z,28.15
2022-10-23T09:33:15.779Z,31.40
2022-10-23T09:35:56.320Z,31.80
2022-10-23T09:38:29.284Z,27.48
2022-10-23T09:40:59.402Z,31.25
2022-10-23T09:43:28.828Z,30.10
2022-10-23T09:46:05.195Z,25.25
2022-10-23T09:48:42.476Z,30.92
2022-10-23T09:51:21.037Z,27.77
2022-10-23T09:53:51.718Z,29.75
2022-10-23T09:56:28.294Z,29.27
2022-10-23T09:58:58.672Z,29.63
2022-10-23T10:01:28.976Z,30.67
2022-10-23T10:04:06.707Z,33.15
2022-10-23T10:06:37.542Z,40.00
2022-10-23T10:09:09.877Z,31.15
2022-10-23T10:11:42.873Z,31.20
2022-10-23T10:14:28.557Z,32.72
2022-10-23T10:17:01.012Z,32.13
2022-10-23T10:19:41.101Z,30.88
2022-10-23T10:22:19.040Z,31.65
2022-10-23T10:24:50.977Z,36.15
2022-10-23T10:27:30.400Z,33.35
2022-10-23T10:30:06.074Z,31.60
2022-10-23T10:32:40.580Z,33.83
2022-10-23T10:35:21.673Z,34.03
2022-10-23T10:38:14.076Z,33.38
2022-10-23T10:40:44.199Z,37.25
2022-10-23T10:43:25.829Z,35.65
2022-10-23T10:45:59.139Z,30.25
2022-10-23T10:48:40.863Z,35.22
2022-10-23T10:51:46.070Z,28.55
2022-10-23T10:54:37.636Z,32.45
2022-10-23T10:57:12.908Z,34.22
2022-10-23T10:59:45.900Z,33.72
2022-10-23T11:02:25.346Z,35.35
2022-10-23T11:04:58.416Z,33.80
2022-10-23T11:07:35.635Z,33.17
2022-10-23T11:10:22.646Z,32.97
2022-10-23T11:12:51.472Z,35.53
2022-10-23T11:15:22.303Z,35.63
2022-10-23T11:17:52.469Z,33.70
2022-10-23T11:20:33.099Z,33.28
2022-10-23T11:23:09.940Z,34.65
2022-10-23T11:25:56.665Z,32.05
2022-10-23T11:28:35.539Z,32.83
2022-10-23T11:31:13.501Z,32.85
2022-10-23T11:34:02.953Z,32.58
2022-10-23T11:36:44.063Z,43.78
2022-10-23T11:39:30.860Z,32.85
2022-10-23T11:42:17.424Z,32.95
2022-10-23T11:44:47.001Z,34.13
2022-10-23T11:47:37.983Z,36.65
2022-10-23T11:50:27.017Z,38.92
2022-10-23T11:53:17.107Z,35.67
2022-10-23T11:56:06.862Z,32.47
2022-10-23T11:58:45.324Z,34.83
2022-10-23T12:01:30.084Z,31.23
2022-10-23T12:04:01.033Z,35.47
2022-10-23T12:06:32.342Z,34.85
2022-10-23T12:09:03.551Z,32.85
2022-10-23T12:11:44.069Z,30.10
2022-10-23T12:14:29.298Z,32.95
2022-10-23T12:16:57.742Z,30.70
2022-10-23T12:19:27.790Z,34.42
2022-10-23T12:21:59.174Z,32.10
2022-10-23T12:24:39.932Z,30.90
2022-10-23T12:27:18.165Z,34.78
2022-10-23T12:30:05.579Z,33.38
2022-10-23T12:32:48.243Z,30.55
2022-10-23T12:35:49.396Z,31.85
2022-10-23T12:38:20.094Z,27.10
2022-10-23T12:40:53.290Z,36.47
2022-10-23T12:43:27.955Z,28.00
2022-10-23T12:45:59.637Z,24.92
2022-10-23T12:48:28.099Z,28.85
2022-10-23T12:50:57.128Z,27.13
2022-10-23T12:53:26.279Z,31.02
2022-10-23T12:56:01.639Z,30.60
2022-10-23T12:58:32.169Z,30.00
2022-10-23T13:01:07.419Z,34.23
2022-10-23T13:03:36.889Z,30.95
2022-10-23T13:06:06.223Z,32.58
2022-10-23T13:08:36.229Z,33.47
2022-10-23T13:11:43.231Z,30.77
2022-10-23T13:14:15.559Z,35.33
2022-10-23T13:16:45.531Z,36.08
2022-10-23T13:19:26.127Z,29.35
2022-10-23T13:21:54.626Z,35.70
2022-10-23T13:24:24.160Z,34.67
2022-10-23T13:26:52.840Z,35.70
2022-10-23T13:29:22.983Z,32.90
2022-10-23T13:31:53.132Z,31.95
2022-10-23T13:34:31.595Z,31.15
2022-10-23T13:37:03.324Z,37.47
2022-10-23T13:39:33.331Z,39.22
2022-10-23T13:42:07.341Z,38.38
2022-10-23T13:44:37.429Z,35.50
2022-10-23T13:47:07.622Z,34.47
2022-10-23T13:49:36.102Z,35.10
2022-10-23T13:52:04.631Z,38.92
2022-10-23T13:54:33.189Z,37.97
2022-10-23T13:57:01.677Z,34.30
2022-10-23T13:59:30.179Z,35.60
2022-10-23T14:01:59.354Z,34.95
2022-10-23T14:04:29.342Z,33.42
2022-10-23T14:06:58.741Z,33.65
2022-10-23T14:09:27.303Z,35.38
2022-10-23T14:11:55.778Z,38.28
2022-10-23T14:14:24.308Z,39.90
2022-10-23T14:16:53.394Z,37.38
2022-10-23T14:19:21.928Z,33.15
2022-10-23T14:21:51.778Z,37.22
2022-10-23T14:24:20.247Z,34.75
2022-10-23T14:26:48.695Z,38.17
2022-10-23T14:29:23.060Z,36.83
2022-10-23T14:31:52.595Z,40.15
2022-10-23T14:34:21.095Z,36.20
2022-10-23T14:39:25.124Z,32.78
2022-10-23T14:41:53.639Z,34.97
2022-10-23T14:44:22.087Z,31.83
2022-10-23T14:46:50.584Z,34.95
2022-10-23T14:49:19.156Z,34.75
2022-10-23T14:51:48.665Z,30.55
2022-10-23T14:54:19.286Z,35.05
2022-10-23T14:56:47.756Z,34.95
2022-10-23T14:59:16.327Z,33.28
2022-10-23T15:01:48.431Z,33.50
2022-10-23T15:04:17.177Z,29.13
2022-10-23T15:06:47.282Z,33.03
2022-10-23T15:09:16.492Z,28.65
2022-10-23T15:11:46.372Z,32.08
2022-10-23T15:14:15.030Z,40.95
2022-10-23T15:16:43.469Z,32.40
2022-10-23T15:19:17.068Z,37.78
2022-10-23T15:21:48.044Z,32.22
2022-10-23T15:24:16.600Z,31.50
2022-10-23T15:26:47.016Z,33.72
2022-10-23T15:29:16.047Z,32.00
2022-10-23T15:31:50.248Z,32.60
2022-10-23T15:34:20.345Z,34.78
2022-10-23T15:36:49.328Z,32.42
2022-10-23T15:39:19.394Z,30.02
2022-10-23T15:41:56.069Z,30.10
2022-10-23T15:44:26.075Z,32.00
2022-10-23T15:46:57.070Z,31.02
2022-10-23T15:49:26.217Z,32.88
2022-10-23T15:51:54.820Z,32.25
2022-10-23T15:54:23.855Z,30.42
2022-10-23T15:56:55.567Z,32.55
2022-10-23T15:59:26.029Z,31.67
2022-10-23T16:01:55.751Z,34.15
2022-10-23T16:04:24.553Z,35.10
2022-10-23T16:06:53.119Z,27.40
2022-10-23T16:09:21.653Z,29.38
2022-10-23T16:11:50.178Z,28.27
2022-10-23T16:14:20.238Z,31.05
2022-10-23T16:16:48.810Z,28.05
2022-10-23T16:19:17.336Z,29.52
2022-10-23T16:21:45.772Z,29.45
2022-10-23T16:24:14.309Z,31.25
2022-10-23T16:26:42.805Z,32.08
2022-10-23T16:29:12.457Z,28.13
2022-10-23T16:31:42.348Z,29.50
2022-10-23T16:34:11.945Z,30.17
2022-10-23T16:36:40.486Z,30.17
2022-10-23T16:39:10.212Z,27.25
2022-10-23T16:41:57.263Z,29.10
2022-10-23T16:44:30.731Z,30.85
2022-10-23T16:47:02.292Z,31.83
2022-10-23T16:49:32.322Z,27.88
2022-10-23T16:52:00.803Z,28.02
2022-10-23T16:54:29.256Z,25.88
2022-10-23T16:56:58.774Z,27.05
2022-10-23T16:59:27.322Z,30.48
2022-10-23T17:01:55.834Z,24.55
2022-10-23T17:04:25.772Z,27.15
2022-10-23T17:06:54.228Z,24.33
2022-10-23T17:09:23.752Z,24.05
2022-10-23T17:11:53.942Z,26.60
2022-10-23T17:14:25.191Z,24.38
2022-10-23T17:16:55.103Z,24.45
2022-10-23T17:19:47.019Z,25.55
2022-10-23T17:22:16.078Z,20.90
2022-10-23T17:24:47.448Z,21.90
2022-10-23T17:27:18.943Z,22.20
2022-10-23T17:29:47.454Z,20.98
2022-10-23T17:32:15.936Z,19.10
2022-10-23T17:34:46.696Z,20.10
2022-10-23T17:37:15.055Z,18.85
2022-10-23T17:39:43.559Z,18.92
2022-10-23T17:42:12.936Z,20.73
2022-10-23T17:44:41.359Z,16.33
2022-10-23T17:47:09.867Z,15.85
2022-10-23T17:49:39.628Z,20.05
2022-10-23T17:52:14.420Z,20.65
2022-10-23T17:54:43.410Z,19.08
2022-10-23T17:57:11.832Z,16.73
2022-10-23T17:59:40.243Z,17.23
2022-10-23T18:02:13.119Z,15.95
2022-10-23T18:04:41.700Z,18.27
2022-10-23T18:07:11.573Z,16.02
2022-10-23T18:09:40.113Z,17.33
2022-10-23T18:12:08.692Z,18.60
2022-10-23T18:14:37.834Z,16.90
2022-10-23T18:17:06.244Z,15.45
2022-10-23T18:19:34.738Z,15.77
2022-10-23T18:22:03.127Z,14.70
2022-10-23T18:24:33.010Z,15.68
2022-10-23T18:27:01.426Z,14.10
2022-10-23T18:29:30.954Z,14.80
2022-10-23T18:31:59.814Z,15.48
2022-10-23T18:34:28.367Z,15.30
2022-10-23T18:36:56.911Z,14.68
2022-10-23T18:39:27.151Z,14.00
2022-10-23T18:41:58.080Z,15.90
2022-10-23T18:44:29.213Z,12.40
2022-10-23T18:46:59.076Z,12.95
2022-10-23T18:49:27.907Z,14.43
2022-10-23T18:51:56.506Z,13.30
2022-10-23T18:54:24.947Z,15.73
2022-10-23T18:56:53.666Z,14.70
2022-10-23T18:59:24.315Z,12.77
2022-10-23T19:01:52.872Z,12.93
2022-10-23T19:04:21.440Z,11.30
2022-10-23T19:06:51.040Z,12.13
2022-10-23T19:09:19.608Z,11.23
2022-10-23T19:11:48.222Z,13.57
2022-10-23T19:14:16.640Z,11.30
2022-10-23T19:16:54.358Z,12.00
2022-10-23T19:19:24.919Z,11.90
2022-10-23T19:21:53.749Z,10.23
2022-10-23T19:24:25.563Z,9.95
2022-10-23T19:26:54.046Z,9.38
2022-10-23T19:29:23.916Z,10.40
2022-10-23T19:31:54.441Z,9.95
2022-10-23T19:34:25.322Z,9.63
2022-10-23T19:36:54.832Z,9.48
2022-10-23T19:39:26.730Z,14.30
2022-10-23T19:42:05.241Z,10.48
2022-10-23T19:44:34.069Z,9.13
2022-10-23T19:47:04.339Z,11.52
2022-10-23T19:49:32.813Z,11.27
2022-10-23T19:52:01.203Z,11.52
2022-10-23T19:54:30.282Z,11.43
2022-10-23T19:56:58.914Z,15.50
2022-10-23T19:59:27.472Z,14.45
2022-10-23T20:01:56.106Z,13.30
2022-10-23T20:04:26.340Z,14.48
2022-10-23T20:06:54.901Z,13.23
2022-10-23T20:09:24.055Z,12.50
2022-10-23T20:11:55.213Z,15.73
2022-10-23T20:14:23.686Z,12.50
2022-10-23T20:16:55.682Z,13.32
2022-10-23T20:19:25.959Z,13.55
2022-10-23T20:21:54.497Z,16.85
2022-10-23T20:24:23.171Z,14.93
2022-10-23T20:26:55.489Z,14.98
2022-10-23T20:29:24.820Z,15.52
2022-10-23T20:31:53.747Z,15.15
2022-10-23T20:34:22.249Z,16.20
2022-10-23T20:36:52.143Z,17.73
2022-10-23T20:39:25.576Z,14.18
2022-10-23T20:41:55.334Z,13.23
2022-10-23T20:44:24.759Z,14.90
2022-10-23T20:46:53.522Z,20.35
2022-10-23T20:49:22.296Z,17.40
2022-10-23T20:51:55.215Z,21.33
2022-10-23T20:54:24.568Z,18.55
2022-10-23T20:56:52.987Z,19.02
2022-10-23T20:59:21.543Z,17.90
2022-10-23T21:01:53.239Z,19.13
2022-10-23T21:04:26.583Z,17.95
2022-10-23T21:07:09.596Z,17.52
2022-10-23T21:09:39.029Z,16.40
2022-10-23T21:12:08.018Z,17.50
2022-10-23T21:14:36.591Z,18.55
2022-10-23T21:17:05.943Z,13.73
2022-10-23T21:19:34.427Z,15.45
2022-10-23T21:22:04.278Z,17.02
2022-10-23T21:24:32.811Z,17.25
2022-10-23T21:27:01.323Z,17.95
2022-10-23T21:29:29.849Z,17.27
2022-10-23T21:32:01.189Z,19.45
2022-10-23T21:34:31.341Z,17.05
2022-10-23T21:37:12.502Z,18.80
2022-10-23T21:39:43.774Z,19.92
2022-10-23T21:42:12.608Z,17.58
2022-10-23T21:44:41.144Z,17.45
2022-10-23T21:47:09.556Z,17.67
2022-10-23T21:49:38.087Z,20.85
2022-10-23T21:52:06.613Z,20.85
2022-10-23T21:54:35.019Z,20.13
2022-10-23T21:57:04.934Z,17.38
2022-10-23T21:59:36.085Z,24.10
2022-10-23T22:02:05.122Z,24.15
2022-10-23T22:04:33.645Z,22.17
2022-10-23T22:07:02.901Z,24.52
2022-10-23T22:09:32.376Z,21.98
2022-10-23T22:12:01.343Z,21.27
2022-10-23T22:14:31.251Z,18.17
2022-10-23T22:16:59.702Z,19.60
2022-10-23T22:19:28.028Z,20.92
2022-10-23T22:21:59.301Z,18.98
2022-10-23T22:24:27.724Z,20.83
2022-10-23T22:26:57.280Z,20.40
2022-10-23T22:29:27.580Z,21.67
2022-10-23T22:31:57.251Z,21.40
2022-10-23T22:34:48.308Z,18.88
2022-10-23T22:37:15.772Z,17.20
2022-10-23T22:39:44.194Z,16.10
2022-10-23T22:42:12.590Z,21.27
2022-10-23T22:44:40.946Z,20.30
2022-10-23T22:47:10.620Z,20.88
2022-10-23T22:49:39.549Z,18.05
2022-10-23T22:52:07.836Z,17.17
2022-10-23T22:54:36.145Z,20.10
2022-10-23T22:57:04.572Z,18.02
2022-10-23T22:59:32.913Z,15.75
2022-10-23T23:02:01.219Z,16.05
2022-10-23T23:04:38.924Z,14.88
2022-10-23T23:07:08.537Z,13.80
2022-10-23T23:09:38.832Z,14.35
2022-10-23T23:12:07.713Z,11.30
2022-10-23T23:14:36.014Z,14.90
2022-10-23T23:17:04.413Z,17.70
2022-10-23T23:19:34.383Z,10.57
2022-10-23T23:22:03.672Z,15.98
2022-10-23T23:24:32.288Z,16.85
2022-10-23T23:27:00.646Z,16.08
2022-10-23T23:29:29.765Z,13.73
2022-10-23T23:31:58.230Z,13.35
2022-10-23T23:34:26.544Z,12.43
2022-10-23T23:36:56.278Z,15.02
2022-10-23T23:39:26.196Z,12.90
2022-10-23T23:41:54.531Z,12.02
2022-10-23T23:44:23.029Z,12.98
2022-10-23T23:46:51.322Z,12.77
2022-10-23T23:49:19.622Z,12.98
2022-10-23T23:51:47.964Z,12.00
2022-10-23T23:54:17.838Z,10.82
2022-10-23T23:56:46.111Z,13.32
2022-10-23T23:59:14.360Z,13.18
